sensor_id;sensor_type;location;lat;lon;timestamp;temperature;humidity
3944;DHT22;1986;52.546;13.428;2022-12-07T00:01:40;5.10;99.90
3944;DHT22;1986;52.546;13.428;2022-12-07T00:04:09;5.10;99.90
3944;DHT22;1986;52.546;13.428;2022-12-07T00:06:38;5.10;99.90
3944;DHT22;1986;52.546;13.428;2022-12-07T00:09:12;4.90;99.90
3944;DHT22;1986;52.546;13.428;2022-12-07T00:11:39;4.90;99.90
3944;DHT22;1986;52.546;13.428;2022-12-07T00:14:09;4.90;99.90
3944;DHT22;1986;52.546;13.428;2022-12-07T00:16:36;4.90;99.90
3944;DHT22;1986;52.546;13.428;2022-12-07T00:19:04;4.80;99.90
3944;DHT22;1986;52.546;13.428;2022-12-07T00:21:35;4.70;99.90
3944;DHT22;1986;52.546;13.428;2022-12-07T00:24:03;4.70;99.90
3944;DHT22;1986;52.546;13.428;2022-12-07T00:26:33;4.60;99.90
3944;DHT22;1986;52.546;13.428;2022-12-07T00:29:03;4.50;99.90
3944;DHT22;1986;52.546;13.428;2022-12-07T00:31:32;4.50;99.90
3944;DHT22;1986;52.546;13.428;2022-12-07T00:34:01;4.50;99.90
3944;DHT22;1986;52.546;13.428;2022-12-07T00:36:28;4.40;99.90
3944;DHT22;1986;52.546;13.428;2022-12-07T00:38:57;4.30;99.90
3944;DHT22;1986;52.546;13.428;2022-12-07T00:41:26;4.20;99.90
3944;DHT22;1986;52.546;13.428;2022-12-07T00:44:00;4.30;99.90
3944;DHT22;1986;52.546;13.428;2022-12-07T00:46:28;4.20;99.90
3944;DHT22;1986;52.546;13.428;2022-12-07T00:48:55;4.20;99.90
3944;DHT22;1986;52.546;13.428;2022-12-07T00:51:24;4.20;99.90
3944;DHT22;1986;52.546;13.428;2022-12-07T00:53:51;4.20;99.90
3944;DHT22;1986;52.546;13.428;2022-12-07T00:56:19;4.10;99.90
3944;DHT22;1986;52.546;13.428;2022-12-07T00:58:50;4.10;99.90
3944;DHT22;1986;52.546;13.428;2022-12-07T01:01:19;4.00;99.90
3944;DHT22;1986;52.546;13.428;2022-12-07T01:03:45;3.90;99.90
3944;DHT22;1986;52.546;13.428;2022-12-07T01:06:14;3.80;99.90
3944;DHT22;1986;52.546;13.428;2022-12-07T01:08:41;3.80;99.90
3944;DHT22;1986;52.546;13.428;2022-12-07T01:11:11;3.80;99.90
3944;DHT22;1986;52.546;13.428;2022-12-07T01:13:38;3.70;99.90
3944;DHT22;1986;52.546;13.428;2022-12-07T01:16:07;3.60;99.90
3944;DHT22;1986;52.546;13.428;2022-12-07T01:18:36;3.60;99.90
3944;DHT22;1986;52.546;13.428;2022-12-07T01:21:05;3.60;99.90
3944;DHT22;1986;52.546;13.428;2022-12-07T01:23:33;3.60;99.90
3944;DHT22;1986;52.546;13.428;2022-12-07T01:26:03;3.60;99.90
3944;DHT22;1986;52.546;13.428;2022-12-07T01:28:31;3.60;99.90
3944;DHT22;1986;52.546;13.428;2022-12-07T01:30:58;3.60;99.90
3944;DHT22;1986;52.546;13.428;2022-12-07T01:33:27;3.60;99.90
3944;DHT22;1986;52.546;13.428;2022-12-07T01:36:00;3.60;99.90
3944;DHT22;1986;52.546;13.428;2022-12-07T01:38:29;3.60;99.90
3944;DHT22;1986;52.546;13.428;2022-12-07T01:40:56;3.60;99.90
3944;DHT22;1986;52.546;13.428;2022-12-07T01:43:24;3.60;99.90
3944;DHT22;1986;52.546;13.428;2022-12-07T01:45:52;3.50;99.90
3944;DHT22;1986;52.546;13.428;2022-12-07T01:48:22;3.50;99.90
3944;DHT22;1986;52.546;13.428;2022-12-07T01:50:51;3.50;99.90
3944;DHT22;1986;52.546;13.428;2022-12-07T01:53:20;3.50;99.90
3944;DHT22;1986;52.546;13.428;2022-12-07T01:55:50;3.50;99.90
3944;DHT22;1986;52.546;13.428;2022-12-07T01:58:18;3.50;99.90
3944;DHT22;1986;52.546;13.428;2022-12-07T02:00:46;3.50;99.90
3944;DHT22;1986;52.546;13.428;2022-12-07T02:03:16;3.50;99.90
3944;DHT22;1986;52.546;13.428;2022-12-07T02:05:45;3.50;99.90
3944;DHT22;1986;52.546;13.428;2022-12-07T02:08:13;3.50;99.90
3944;DHT22;1986;52.546;13.428;2022-12-07T02:10:42;3.60;99.90
3944;DHT22;1986;52.546;13.428;2022-12-07T02:13:12;3.60;99.90
3944;DHT22;1986;52.546;13.428;2022-12-07T02:18:42;3.50;99.90
3944;DHT22;1986;52.546;13.428;2022-12-07T02:21:13;3.40;99.90
3944;DHT22;1986;52.546;13.428;2022-12-07T02:27:02;3.40;99.90
3944;DHT22;1986;52.546;13.428;2022-12-07T02:29:36;3.30;99.90
3944;DHT22;1986;52.546;13.428;2022-12-07T02:32:08;3.30;99.90
3944;DHT22;1986;52.546;13.428;2022-12-07T02:34:43;3.30;99.90
3944;DHT22;1986;52.546;13.428;2022-12-07T02:37:21;3.30;99.90
3944;DHT22;1986;52.546;13.428;2022-12-07T02:39:54;3.40;99.90
3944;DHT22;1986;52.546;13.428;2022-12-07T02:42:25;3.30;99.90
3944;DHT22;1986;52.546;13.428;2022-12-07T02:44:55;3.30;99.90
3944;DHT22;1986;52.546;13.428;2022-12-07T02:47:24;3.30;99.90
3944;DHT22;1986;52.546;13.428;2022-12-07T02:49:51;3.30;99.90
3944;DHT22;1986;52.546;13.428;2022-12-07T02:52:18;3.20;99.90
3944;DHT22;1986;52.546;13.428;2022-12-07T02:54:45;3.30;99.90
3944;DHT22;1986;52.546;13.428;2022-12-07T02:57:26;3.30;99.90
3944;DHT22;1986;52.546;13.428;2022-12-07T03:00:03;3.30;99.90
3944;DHT22;1986;52.546;13.428;2022-12-07T03:02:38;3.20;99.90
3944;DHT22;1986;52.546;13.428;2022-12-07T03:05:18;3.20;99.90
3944;DHT22;1986;52.546;13.428;2022-12-07T03:07:51;3.30;99.90
3944;DHT22;1986;52.546;13.428;2022-12-07T03:10:24;3.20;99.90
3944;DHT22;1986;52.546;13.428;2022-12-07T03:12:58;3.20;99.90
3944;DHT22;1986;52.546;13.428;2022-12-07T03:15:34;3.20;99.90
3944;DHT22;1986;52.546;13.428;2022-12-07T03:18:04;3.20;99.90
3944;DHT22;1986;52.546;13.428;2022-12-07T03:20:33;3.20;99.90
3944;DHT22;1986;52.546;13.428;2022-12-07T03:23:03;3.20;99.90
3944;DHT22;1986;52.546;13.428;2022-12-07T03:25:32;3.20;99.90
3944;DHT22;1986;52.546;13.428;2022-12-07T03:28:03;3.30;99.90
3944;DHT22;1986;52.546;13.428;2022-12-07T03:30:34;3.30;99.90
3944;DHT22;1986;52.546;13.428;2022-12-07T03:33:06;3.30;99.90
3944;DHT22;1986;52.546;13.428;2022-12-07T03:35:37;3.40;99.90
3944;DHT22;1986;52.546;13.428;2022-12-07T03:38:14;3.40;99.90
3944;DHT22;1986;52.546;13.428;2022-12-07T03:40:46;3.40;99.90
3944;DHT22;1986;52.546;13.428;2022-12-07T03:43:16;3.40;99.90
3944;DHT22;1986;52.546;13.428;2022-12-07T03:45:52;3.50;99.90
3944;DHT22;1986;52.546;13.428;2022-12-07T03:48:26;3.60;99.90
3944;DHT22;1986;52.546;13.428;2022-12-07T03:50:58;3.60;99.90
3944;DHT22;1986;52.546;13.428;2022-12-07T03:53:33;3.60;99.90
3944;DHT22;1986;52.546;13.428;2022-12-07T03:56:02;3.60;99.90
3944;DHT22;1986;52.546;13.428;2022-12-07T03:58:30;3.60;99.90
3944;DHT22;1986;52.546;13.428;2022-12-07T04:00:58;3.60;99.90
3944;DHT22;1986;52.546;13.428;2022-12-07T04:03:25;3.60;99.90
3944;DHT22;1986;52.546;13.428;2022-12-07T04:05:52;3.60;99.90
3944;DHT22;1986;52.546;13.428;2022-12-07T04:08:19;3.60;99.90
3944;DHT22;1986;52.546;13.428;2022-12-07T04:10:46;3.60;99.90
3944;DHT22;1986;52.546;13.428;2022-12-07T04:13:13;3.60;99.90
3944;DHT22;1986;52.546;13.428;2022-12-07T04:15:40;3.50;99.90
3944;DHT22;1986;52.546;13.428;2022-12-07T04:18:11;3.40;99.90
3944;DHT22;1986;52.546;13.428;2022-12-07T04:20:38;3.40;99.90
3944;DHT22;1986;52.546;13.428;2022-12-07T04:23:05;3.40;99.90
3944;DHT22;1986;52.546;13.428;2022-12-07T04:25:32;3.40;99.90
3944;DHT22;1986;52.546;13.428;2022-12-07T04:27:59;3.40;99.90
3944;DHT22;1986;52.546;13.428;2022-12-07T04:30:26;3.30;99.90
3944;DHT22;1986;52.546;13.428;2022-12-07T04:32:53;3.30;99.90
3944;DHT22;1986;52.546;13.428;2022-12-07T04:35:21;3.30;99.90
3944;DHT22;1986;52.546;13.428;2022-12-07T04:37:48;3.30;99.90
3944;DHT22;1986;52.546;13.428;2022-12-07T04:40:15;3.30;99.90
3944;DHT22;1986;52.546;13.428;2022-12-07T04:42:42;3.30;99.90
3944;DHT22;1986;52.546;13.428;2022-12-07T04:45:09;3.30;99.90
3944;DHT22;1986;52.546;13.428;2022-12-07T04:47:36;3.30;99.90
3944;DHT22;1986;52.546;13.428;2022-12-07T04:50:04;3.40;99.90
3944;DHT22;1986;52.546;13.428;2022-12-07T04:52:33;3.30;99.90
3944;DHT22;1986;52.546;13.428;2022-12-07T04:55:00;3.30;99.90
3944;DHT22;1986;52.546;13.428;2022-12-07T04:57:27;3.30;99.90
3944;DHT22;1986;52.546;13.428;2022-12-07T04:59:54;3.30;99.90
3944;DHT22;1986;52.546;13.428;2022-12-07T05:02:21;3.30;99.90
3944;DHT22;1986;52.546;13.428;2022-12-07T05:04:47;3.30;99.90
3944;DHT22;1986;52.546;13.428;2022-12-07T05:07:14;3.40;99.90
3944;DHT22;1986;52.546;13.428;2022-12-07T05:09:42;3.40;99.90
3944;DHT22;1986;52.546;13.428;2022-12-07T05:12:09;3.40;99.90
3944;DHT22;1986;52.546;13.428;2022-12-07T05:14:36;3.40;99.90
3944;DHT22;1986;52.546;13.428;2022-12-07T05:17:04;3.50;99.90
3944;DHT22;1986;52.546;13.428;2022-12-07T05:19:31;3.50;99.90
3944;DHT22;1986;52.546;13.428;2022-12-07T05:21:58;3.60;99.90
3944;DHT22;1986;52.546;13.428;2022-12-07T05:24:25;3.60;99.90
3944;DHT22;1986;52.546;13.428;2022-12-07T05:26:53;3.70;99.90
3944;DHT22;1986;52.546;13.428;2022-12-07T05:29:20;3.70;99.90
3944;DHT22;1986;52.546;13.428;2022-12-07T05:31:49;3.80;99.90
3944;DHT22;1986;52.546;13.428;2022-12-07T05:34:16;3.80;99.90
3944;DHT22;1986;52.546;13.428;2022-12-07T05:36:43;3.90;99.90
3944;DHT22;1986;52.546;13.428;2022-12-07T05:39:10;3.90;99.90
3944;DHT22;1986;52.546;13.428;2022-12-07T05:41:37;3.90;99.90
3944;DHT22;1986;52.546;13.428;2022-12-07T05:44:22;3.90;99.90
3944;DHT22;1986;52.546;13.428;2022-12-07T05:46:49;4.00;99.90
3944;DHT22;1986;52.546;13.428;2022-12-07T05:49:16;4.10;99.90
3944;DHT22;1986;52.546;13.428;2022-12-07T05:51:43;4.10;99.90
3944;DHT22;1986;52.546;13.428;2022-12-07T05:54:10;4.10;99.90
3944;DHT22;1986;52.546;13.428;2022-12-07T05:56:37;4.20;99.90
3944;DHT22;1986;52.546;13.428;2022-12-07T05:59:04;4.20;99.90
3944;DHT22;1986;52.546;13.428;2022-12-07T06:01:51;4.20;99.90
3944;DHT22;1986;52.546;13.428;2022-12-07T06:04:19;4.30;99.90
3944;DHT22;1986;52.546;13.428;2022-12-07T06:06:47;4.30;99.90
3944;DHT22;1986;52.546;13.428;2022-12-07T06:09:14;4.40;99.90
3944;DHT22;1986;52.546;13.428;2022-12-07T06:11:41;4.40;99.90
3944;DHT22;1986;52.546;13.428;2022-12-07T06:14:26;4.50;99.90
3944;DHT22;1986;52.546;13.428;2022-12-07T06:16:54;4.60;99.90
3944;DHT22;1986;52.546;13.428;2022-12-07T06:19:21;4.60;99.90
3944;DHT22;1986;52.546;13.428;2022-12-07T06:21:48;4.60;99.90
3944;DHT22;1986;52.546;13.428;2022-12-07T06:24:16;4.60;99.90
3944;DHT22;1986;52.546;13.428;2022-12-07T06:26:43;4.60;99.90
3944;DHT22;1986;52.546;13.428;2022-12-07T06:29:11;4.70;99.90
3944;DHT22;1986;52.546;13.428;2022-12-07T06:31:38;4.70;99.90
3944;DHT22;1986;52.546;13.428;2022-12-07T06:34:09;4.60;99.90
3944;DHT22;1986;52.546;13.428;2022-12-07T06:36:36;4.60;99.90
3944;DHT22;1986;52.546;13.428;2022-12-07T06:39:07;4.60;99.90
3944;DHT22;1986;52.546;13.428;2022-12-07T06:41:35;4.60;99.90
3944;DHT22;1986;52.546;13.428;2022-12-07T06:44:02;4.60;99.90
3944;DHT22;1986;52.546;13.428;2022-12-07T06:46:29;4.60;99.90
3944;DHT22;1986;52.546;13.428;2022-12-07T06:48:57;4.60;99.90
3944;DHT22;1986;52.546;13.428;2022-12-07T06:51:25;4.70;99.90
3944;DHT22;1986;52.546;13.428;2022-12-07T06:53:52;4.70;99.90
3944;DHT22;1986;52.546;13.428;2022-12-07T06:56:19;4.70;99.90
3944;DHT22;1986;52.546;13.428;2022-12-07T06:58:46;4.80;99.90
3944;DHT22;1986;52.546;13.428;2022-12-07T07:01:16;4.80;99.90
3944;DHT22;1986;52.546;13.428;2022-12-07T07:03:44;4.80;99.90
3944;DHT22;1986;52.546;13.428;2022-12-07T07:06:12;4.90;99.90
3944;DHT22;1986;52.546;13.428;2022-12-07T07:08:40;4.90;99.90
3944;DHT22;1986;52.546;13.428;2022-12-07T07:11:08;4.90;99.90
3944;DHT22;1986;52.546;13.428;2022-12-07T07:13:35;5.00;99.90
3944;DHT22;1986;52.546;13.428;2022-12-07T07:16:03;5.00;99.90
3944;DHT22;1986;52.546;13.428;2022-12-07T07:18:30;5.00;99.90
3944;DHT22;1986;52.546;13.428;2022-12-07T07:20:57;5.00;99.90
3944;DHT22;1986;52.546;13.428;2022-12-07T07:23:24;5.10;99.90
3944;DHT22;1986;52.546;13.428;2022-12-07T07:25:52;5.10;99.90
3944;DHT22;1986;52.546;13.428;2022-12-07T07:28:19;5.10;99.90
3944;DHT22;1986;52.546;13.428;2022-12-07T07:30:47;5.10;99.90
3944;DHT22;1986;52.546;13.428;2022-12-07T07:33:14;5.10;99.90
3944;DHT22;1986;52.546;13.428;2022-12-07T07:35:41;5.10;99.90
3944;DHT22;1986;52.546;13.428;2022-12-07T07:38:08;5.10;99.90
3944;DHT22;1986;52.546;13.428;2022-12-07T07:40:35;5.10;99.90
3944;DHT22;1986;52.546;13.428;2022-12-07T07:43:04;5.10;99.90
3944;DHT22;1986;52.546;13.428;2022-12-07T07:45:31;5.10;99.90
3944;DHT22;1986;52.546;13.428;2022-12-07T07:47:58;5.10;99.90
3944;DHT22;1986;52.546;13.428;2022-12-07T07:50:25;5.00;99.90
3944;DHT22;1986;52.546;13.428;2022-12-07T07:52:52;5.00;99.90
3944;DHT22;1986;52.546;13.428;2022-12-07T07:55:19;5.00;99.90
3944;DHT22;1986;52.546;13.428;2022-12-07T07:57:46;5.00;99.90
3944;DHT22;1986;52.546;13.428;2022-12-07T08:00:16;5.00;99.90
3944;DHT22;1986;52.546;13.428;2022-12-07T08:02:43;5.00;99.90
3944;DHT22;1986;52.546;13.428;2022-12-07T08:05:17;5.00;99.90
3944;DHT22;1986;52.546;13.428;2022-12-07T08:07:44;5.10;99.90
3944;DHT22;1986;52.546;13.428;2022-12-07T08:10:13;5.10;99.90
3944;DHT22;1986;52.546;13.428;2022-12-07T08:12:41;5.00;99.90
3944;DHT22;1986;52.546;13.428;2022-12-07T08:15:28;5.00;99.90
3944;DHT22;1986;52.546;13.428;2022-12-07T08:17:57;5.00;99.90
3944;DHT22;1986;52.546;13.428;2022-12-07T08:20:29;5.00;99.90
3944;DHT22;1986;52.546;13.428;2022-12-07T08:22:56;5.00;99.90
3944;DHT22;1986;52.546;13.428;2022-12-07T08:25:23;5.00;99.90
3944;DHT22;1986;52.546;13.428;2022-12-07T08:27:51;5.00;99.90
3944;DHT22;1986;52.546;13.428;2022-12-07T08:30:19;5.00;99.90
3944;DHT22;1986;52.546;13.428;2022-12-07T08:32:48;5.00;99.90
3944;DHT22;1986;52.546;13.428;2022-12-07T08:35:16;5.00;99.90
3944;DHT22;1986;52.546;13.428;2022-12-07T08:37:46;5.10;99.90
3944;DHT22;1986;52.546;13.428;2022-12-07T08:40:20;5.10;99.90
3944;DHT22;1986;52.546;13.428;2022-12-07T08:42:50;5.10;99.90
3944;DHT22;1986;52.546;13.428;2022-12-07T08:45:19;5.00;99.90
3944;DHT22;1986;52.546;13.428;2022-12-07T08:47:50;5.10;99.90
3944;DHT22;1986;52.546;13.428;2022-12-07T08:50:19;5.00;99.90
3944;DHT22;1986;52.546;13.428;2022-12-07T08:52:49;4.90;99.90
3944;DHT22;1986;52.546;13.428;2022-12-07T08:55:17;4.90;99.90
3944;DHT22;1986;52.546;13.428;2022-12-07T08:57:45;4.90;99.90
3944;DHT22;1986;52.546;13.428;2022-12-07T09:00:13;5.00;99.90
3944;DHT22;1986;52.546;13.428;2022-12-07T09:02:40;4.90;99.90
3944;DHT22;1986;52.546;13.428;2022-12-07T09:05:09;4.90;99.90
3944;DHT22;1986;52.546;13.428;2022-12-07T09:07:43;4.90;99.90
3944;DHT22;1986;52.546;13.428;2022-12-07T09:10:13;5.00;99.90
3944;DHT22;1986;52.546;13.428;2022-12-07T09:12:40;5.00;99.90
3944;DHT22;1986;52.546;13.428;2022-12-07T09:15:10;5.00;99.90
3944;DHT22;1986;52.546;13.428;2022-12-07T09:17:44;5.00;99.90
3944;DHT22;1986;52.546;13.428;2022-12-07T09:20:12;5.00;99.90
3944;DHT22;1986;52.546;13.428;2022-12-07T09:22:44;4.90;99.90
3944;DHT22;1986;52.546;13.428;2022-12-07T09:25:18;4.90;99.90
3944;DHT22;1986;52.546;13.428;2022-12-07T09:27:48;4.90;99.90
3944;DHT22;1986;52.546;13.428;2022-12-07T09:30:38;4.80;99.90
3944;DHT22;1986;52.546;13.428;2022-12-07T09:33:13;4.70;99.90
3944;DHT22;1986;52.546;13.428;2022-12-07T09:35:46;4.70;99.90
3944;DHT22;1986;52.546;13.428;2022-12-07T09:38:14;4.60;99.90
3944;DHT22;1986;52.546;13.428;2022-12-07T09:40:42;4.70;99.90
3944;DHT22;1986;52.546;13.428;2022-12-07T09:43:13;4.70;99.90
3944;DHT22;1986;52.546;13.428;2022-12-07T09:45:51;4.60;99.90
3944;DHT22;1986;52.546;13.428;2022-12-07T09:48:22;4.60;99.90
3944;DHT22;1986;52.546;13.428;2022-12-07T09:51:02;4.60;99.90
3944;DHT22;1986;52.546;13.428;2022-12-07T09:53:56;4.60;99.90
3944;DHT22;1986;52.546;13.428;2022-12-07T09:56:31;4.60;99.90
3944;DHT22;1986;52.546;13.428;2022-12-07T09:59:13;4.60;99.90
3944;DHT22;1986;52.546;13.428;2022-12-07T10:02:02;4.40;99.90
3944;DHT22;1986;52.546;13.428;2022-12-07T10:04:40;4.50;99.90
3944;DHT22;1986;52.546;13.428;2022-12-07T10:07:26;4.50;99.90
3944;DHT22;1986;52.546;13.428;2022-12-07T10:09:53;4.40;99.90
3944;DHT22;1986;52.546;13.428;2022-12-07T10:12:20;4.40;99.90
3944;DHT22;1986;52.546;13.428;2022-12-07T10:14:55;4.50;99.90
3944;DHT22;1986;52.546;13.428;2022-12-07T10:17:35;4.50;99.90
3944;DHT22;1986;52.546;13.428;2022-12-07T10:20:18;4.70;99.90
3944;DHT22;1986;52.546;13.428;2022-12-07T10:23:03;4.50;99.90
3944;DHT22;1986;52.546;13.428;2022-12-07T10:25:36;4.50;99.90
3944;DHT22;1986;52.546;13.428;2022-12-07T10:28:13;4.40;99.90
3944;DHT22;1986;52.546;13.428;2022-12-07T10:30:56;4.40;99.90
3944;DHT22;1986;52.546;13.428;2022-12-07T10:33:35;4.40;99.90
3944;DHT22;1986;52.546;13.428;2022-12-07T10:36:17;4.40;99.90
3944;DHT22;1986;52.546;13.428;2022-12-07T10:38:52;4.50;99.90
3944;DHT22;1986;52.546;13.428;2022-12-07T10:41:24;4.50;99.90
3944;DHT22;1986;52.546;13.428;2022-12-07T10:43:53;4.50;99.90
3944;DHT22;1986;52.546;13.428;2022-12-07T10:50:01;4.50;99.90
3944;DHT22;1986;52.546;13.428;2022-12-07T10:52:44;4.40;99.90
3944;DHT22;1986;52.546;13.428;2022-12-07T10:55:20;4.40;99.90
3944;DHT22;1986;52.546;13.428;2022-12-07T10:58:18;4.50;99.90
3944;DHT22;1986;52.546;13.428;2022-12-07T11:00:55;4.30;99.90
3944;DHT22;1986;52.546;13.428;2022-12-07T11:03:41;4.30;99.90
3944;DHT22;1986;52.546;13.428;2022-12-07T11:06:27;4.40;99.90
3944;DHT22;1986;52.546;13.428;2022-12-07T11:09:12;4.50;99.90
3944;DHT22;1986;52.546;13.428;2022-12-07T11:11:48;4.60;99.90
3944;DHT22;1986;52.546;13.428;2022-12-07T11:14:26;4.60;99.90
3944;DHT22;1986;52.546;13.428;2022-12-07T11:16:57;4.60;99.90
3944;DHT22;1986;52.546;13.428;2022-12-07T11:19:39;4.60;99.90
3944;DHT22;1986;52.546;13.428;2022-12-07T11:22:20;4.60;99.90
3944;DHT22;1986;52.546;13.428;2022-12-07T11:24:57;4.60;99.90
3944;DHT22;1986;52.546;13.428;2022-12-07T11:27:36;4.50;99.90
3944;DHT22;1986;52.546;13.428;2022-12-07T11:30:13;4.50;99.90
3944;DHT22;1986;52.546;13.428;2022-12-07T11:32:51;4.50;99.90
3944;DHT22;1986;52.546;13.428;2022-12-07T11:35:29;4.50;99.90
3944;DHT22;1986;52.546;13.428;2022-12-07T11:38:01;4.40;99.90
3944;DHT22;1986;52.546;13.428;2022-12-07T11:40:34;4.40;99.90
3944;DHT22;1986;52.546;13.428;2022-12-07T11:43:09;4.40;99.90
3944;DHT22;1986;52.546;13.428;2022-12-07T11:45:43;4.40;99.90
3944;DHT22;1986;52.546;13.428;2022-12-07T11:48:14;4.50;99.90
3944;DHT22;1986;52.546;13.428;2022-12-07T11:50:45;4.50;99.90
3944;DHT22;1986;52.546;13.428;2022-12-07T11:53:17;4.50;99.90
3944;DHT22;1986;52.546;13.428;2022-12-07T11:55:50;4.50;99.90
3944;DHT22;1986;52.546;13.428;2022-12-07T11:58:33;4.50;99.90
3944;DHT22;1986;52.546;13.428;2022-12-07T12:01:33;4.50;99.90
3944;DHT22;1986;52.546;13.428;2022-12-07T12:04:13;4.60;99.90
3944;DHT22;1986;52.546;13.428;2022-12-07T12:06:45;4.50;99.90
3944;DHT22;1986;52.546;13.428;2022-12-07T12:09:17;4.50;99.90
3944;DHT22;1986;52.546;13.428;2022-12-07T12:12:02;4.50;99.90
3944;DHT22;1986;52.546;13.428;2022-12-07T12:14:46;4.60;99.90
3944;DHT22;1986;52.546;13.428;2022-12-07T12:17:40;4.60;99.90
3944;DHT22;1986;52.546;13.428;2022-12-07T12:20:20;4.60;99.90
3944;DHT22;1986;52.546;13.428;2022-12-07T12:22:52;4.60;99.90
3944;DHT22;1986;52.546;13.428;2022-12-07T12:25:24;4.60;99.90
3944;DHT22;1986;52.546;13.428;2022-12-07T12:27:54;4.70;99.90
3944;DHT22;1986;52.546;13.428;2022-12-07T12:30:32;4.80;99.90
3944;DHT22;1986;52.546;13.428;2022-12-07T12:33:12;4.80;99.90
3944;DHT22;1986;52.546;13.428;2022-12-07T12:35:42;4.70;99.90
3944;DHT22;1986;52.546;13.428;2022-12-07T12:38:50;4.70;99.90
3944;DHT22;1986;52.546;13.428;2022-12-07T12:47:53;4.70;99.90
3944;DHT22;1986;52.546;13.428;2022-12-07T12:50:23;4.70;99.90
3944;DHT22;1986;52.546;13.428;2022-12-07T12:52:53;4.70;99.90
3944;DHT22;1986;52.546;13.428;2022-12-07T12:55:58;4.70;99.90
3944;DHT22;1986;52.546;13.428;2022-12-07T12:58:35;4.70;99.90
3944;DHT22;1986;52.546;13.428;2022-12-07T13:07:11;4.70;99.90
3944;DHT22;1986;52.546;13.428;2022-12-07T13:09:43;4.70;99.90
3944;DHT22;1986;52.546;13.428;2022-12-07T13:12:15;4.70;99.90
3944;DHT22;1986;52.546;13.428;2022-12-07T13:14:55;4.70;99.90
3944;DHT22;1986;52.546;13.428;2022-12-07T13:18:01;4.70;99.90
3944;DHT22;1986;52.546;13.428;2022-12-07T13:20:57;4.70;99.90
3944;DHT22;1986;52.546;13.428;2022-12-07T13:23:29;4.70;99.90
3944;DHT22;1986;52.546;13.428;2022-12-07T13:26:17;4.70;99.90
3944;DHT22;1986;52.546;13.428;2022-12-07T13:28:48;4.70;99.90
3944;DHT22;1986;52.546;13.428;2022-12-07T13:31:26;4.70;99.90
3944;DHT22;1986;52.546;13.428;2022-12-07T13:33:57;4.70;99.90
3944;DHT22;1986;52.546;13.428;2022-12-07T13:36:29;4.70;99.90
3944;DHT22;1986;52.546;13.428;2022-12-07T13:38:58;4.70;99.90
3944;DHT22;1986;52.546;13.428;2022-12-07T13:41:26;4.70;99.90
3944;DHT22;1986;52.546;13.428;2022-12-07T13:44:00;4.70;99.90
3944;DHT22;1986;52.546;13.428;2022-12-07T13:46:35;4.70;99.90
3944;DHT22;1986;52.546;13.428;2022-12-07T13:49:20;4.70;99.90
3944;DHT22;1986;52.546;13.428;2022-12-07T13:51:49;4.80;99.90
3944;DHT22;1986;52.546;13.428;2022-12-07T13:54:17;4.80;99.90
3944;DHT22;1986;52.546;13.428;2022-12-07T13:56:48;4.80;99.90
3944;DHT22;1986;52.546;13.428;2022-12-07T13:59:18;4.80;99.90
3944;DHT22;1986;52.546;13.428;2022-12-07T14:01:47;4.80;99.90
3944;DHT22;1986;52.546;13.428;2022-12-07T14:04:24;4.80;99.90
3944;DHT22;1986;52.546;13.428;2022-12-07T14:06:55;4.80;99.90
3944;DHT22;1986;52.546;13.428;2022-12-07T14:09:24;4.80;99.90
3944;DHT22;1986;52.546;13.428;2022-12-07T14:11:53;4.80;99.90
3944;DHT22;1986;52.546;13.428;2022-12-07T14:14:22;4.80;99.90
3944;DHT22;1986;52.546;13.428;2022-12-07T14:17:09;4.70;99.90
3944;DHT22;1986;52.546;13.428;2022-12-07T14:19:42;4.70;99.90
3944;DHT22;1986;52.546;13.428;2022-12-07T14:22:23;4.70;99.90
3944;DHT22;1986;52.546;13.428;2022-12-07T14:24:51;4.70;99.90
3944;DHT22;1986;52.546;13.428;2022-12-07T14:27:30;4.70;99.90
3944;DHT22;1986;52.546;13.428;2022-12-07T14:30:00;4.70;99.90
3944;DHT22;1986;52.546;13.428;2022-12-07T14:32:35;4.70;99.90
3944;DHT22;1986;52.546;13.428;2022-12-07T14:35:08;4.70;99.90
3944;DHT22;1986;52.546;13.428;2022-12-07T14:37:43;4.70;99.90
3944;DHT22;1986;52.546;13.428;2022-12-07T14:40:13;4.70;99.90
3944;DHT22;1986;52.546;13.428;2022-12-07T14:42:42;4.60;99.90
3944;DHT22;1986;52.546;13.428;2022-12-07T14:45:15;4.60;99.90
3944;DHT22;1986;52.546;13.428;2022-12-07T14:47:43;4.60;99.90
3944;DHT22;1986;52.546;13.428;2022-12-07T14:50:12;4.60;99.90
3944;DHT22;1986;52.546;13.428;2022-12-07T14:52:42;4.50;99.90
3944;DHT22;1986;52.546;13.428;2022-12-07T14:55:14;4.50;99.90
3944;DHT22;1986;52.546;13.428;2022-12-07T14:57:43;4.50;99.90
3944;DHT22;1986;52.546;13.428;2022-12-07T15:00:14;4.40;99.90
3944;DHT22;1986;52.546;13.428;2022-12-07T15:02:43;4.40;99.90
3944;DHT22;1986;52.546;13.428;2022-12-07T15:05:10;4.40;99.90
3944;DHT22;1986;52.546;13.428;2022-12-07T15:07:37;4.30;99.90
3944;DHT22;1986;52.546;13.428;2022-12-07T15:10:09;4.30;99.90
3944;DHT22;1986;52.546;13.428;2022-12-07T15:12:39;4.30;99.90
3944;DHT22;1986;52.546;13.428;2022-12-07T15:15:07;4.30;99.90
3944;DHT22;1986;52.546;13.428;2022-12-07T15:17:35;4.20;99.90
3944;DHT22;1986;52.546;13.428;2022-12-07T15:20:03;4.20;99.90
3944;DHT22;1986;52.546;13.428;2022-12-07T15:22:30;4.20;99.90
3944;DHT22;1986;52.546;13.428;2022-12-07T15:24:57;4.20;99.90
3944;DHT22;1986;52.546;13.428;2022-12-07T15:27:27;4.20;99.90
3944;DHT22;1986;52.546;13.428;2022-12-07T15:29:54;4.10;99.90
3944;DHT22;1986;52.546;13.428;2022-12-07T15:32:21;4.10;99.90
3944;DHT22;1986;52.546;13.428;2022-12-07T15:34:49;4.10;99.90
3944;DHT22;1986;52.546;13.428;2022-12-07T15:37:17;4.10;99.90
3944;DHT22;1986;52.546;13.428;2022-12-07T15:39:44;4.10;99.90
3944;DHT22;1986;52.546;13.428;2022-12-07T15:42:11;4.00;99.90
3944;DHT22;1986;52.546;13.428;2022-12-07T15:44:40;4.00;99.90
3944;DHT22;1986;52.546;13.428;2022-12-07T15:47:24;4.00;99.90
3944;DHT22;1986;52.546;13.428;2022-12-07T15:49:52;4.00;99.90
3944;DHT22;1986;52.546;13.428;2022-12-07T15:52:19;4.10;99.90
3944;DHT22;1986;52.546;13.428;2022-12-07T15:54:45;4.10;99.90
3944;DHT22;1986;52.546;13.428;2022-12-07T15:57:13;4.10;99.90
3944;DHT22;1986;52.546;13.428;2022-12-07T15:59:42;4.10;99.90
3944;DHT22;1986;52.546;13.428;2022-12-07T16:02:09;4.10;99.90
3944;DHT22;1986;52.546;13.428;2022-12-07T16:04:37;4.10;99.90
3944;DHT22;1986;52.546;13.428;2022-12-07T16:07:04;4.10;99.90
3944;DHT22;1986;52.546;13.428;2022-12-07T16:09:31;4.10;99.90
3944;DHT22;1986;52.546;13.428;2022-12-07T16:11:58;4.10;99.90
3944;DHT22;1986;52.546;13.428;2022-12-07T16:14:25;4.10;99.90
3944;DHT22;1986;52.546;13.428;2022-12-07T16:16:54;4.00;99.90
3944;DHT22;1986;52.546;13.428;2022-12-07T16:19:21;4.00;99.90
3944;DHT22;1986;52.546;13.428;2022-12-07T16:21:48;4.00;99.90
3944;DHT22;1986;52.546;13.428;2022-12-07T16:24:15;4.00;99.90
3944;DHT22;1986;52.546;13.428;2022-12-07T16:26:43;3.90;99.90
3944;DHT22;1986;52.546;13.428;2022-12-07T16:29:11;3.80;99.90
3944;DHT22;1986;52.546;13.428;2022-12-07T16:31:38;3.80;99.90
3944;DHT22;1986;52.546;13.428;2022-12-07T16:34:08;3.90;99.90
3944;DHT22;1986;52.546;13.428;2022-12-07T16:36:36;3.90;99.90
3944;DHT22;1986;52.546;13.428;2022-12-07T16:39:03;3.80;99.90
3944;DHT22;1986;52.546;13.428;2022-12-07T16:41:30;3.70;99.90
3944;DHT22;1986;52.546;13.428;2022-12-07T16:43:57;3.70;99.90
3944;DHT22;1986;52.546;13.428;2022-12-07T16:46:28;3.70;99.90
3944;DHT22;1986;52.546;13.428;2022-12-07T16:48:55;3.60;99.90
3944;DHT22;1986;52.546;13.428;2022-12-07T16:51:24;3.60;99.90